Terminal Aerodrome Forecast
Issued by NWS

Home | Current Version | Previous Version | Graphics & Text | Print | Product List | Glossary On
Versions: 1 2 3 4 5 6 7 8 9 10 11 12 13 14 15 16 17 18 19
000
FTUS43 KFGF 111400 AAA
TAFBJI
TAF AMD
KBJI 111401Z 1114/1212 17004KT P6SM OVC025
     FM111700 25010KT P6SM BKN080
     FM120100 30004KT P6SM SCT250=

USA.gov is the U.S. government's official web portal to all federal, state and local government web resources and services.